Hauptseite
METAR-TAF:

METAR-TAF

Flughäfen :

Damaskus, Syrien

Flughafen Damaskus

Breite: 33-25N, Länge: 036-31E, Höhe: 608 m

Beobachtung

Neuester Wetterbericht von vor 1 Stunde und 54 Minuten, um 10:00 UTC
Wind 3 kt aus West
Temperatur 19°C
Luftfeuchtigkeit 34%
Luftdruck 1016 hPa
Sichtweite 10 km oder mehr
keine Wolken unter 1500 m und keine Kumulonimbus oder Gewitterwolken

METAR: OSDI 281000Z 26003KT CAVOK 19/03 Q1016

Zeit: 13:54 (11:54 UTC)

Prognose

Gültige Prognose vom 28 um 12 UTC bis 29 um 18 UTC
Wind 10 kt aus Südwest
Sichtweite 10 km oder mehr
keine Wolken unter 1500 m und keine Kumulonimbus oder Gewitterwolken
Zeitweise
vom 28 um 12 UTC bis 28 um 18 UTC
Wind 15 kt aus West/Südwest
Sichtweite: 8000 m
Leicht bewölkt in der Höhe von 3000 ft
Aufgelockert bewölkt in der Höhe von 10000 ft

TAF: OSDI 2812/2918 22010KT CAVOK TEMPO 2812/2818 25015KT 8000 FEW030 SCT100

Wetterbeobachtungen und Prognosen von mehr als 4000 Flughäfen (METAR und TAF Bericht).

Die verfügbaren Stationen werden durch gelbe und rote Markierungen auf der Karte dargestellt.

Führen Sie die Maus auf sie, um den Namen der Station zu sehen.

Darauf klicken, um die Beobachtung von Wetterbeobachtungen und Prognosen zu sehen.

Um die Karte zu ändern : klicken Sie auf den grünen Tasten mit einem schwarzen Kreuz Zum Vergrößern, auf den grünen Button mit einem Gedankenstrich zu verkleinern, oder auf die grünen Pfeile für benachbarte Karten.


METAR-TAF: